Time;durP1;ratioP1;P1;durP2;ratioP2;P2;SDS_P1;SDS_P2;PMS_P1;PMS_P2;Temp;Humidity;BMP_temperature;BMP_pressure;BME280_temperature;BME280_humidity;BME280_pressure;Samples;Min_cycle;Max_cycle;Signal;HPM_P1;HPM_P2
2022/10/10 00:00:49;;;;;;;16.30;14.88;;;;;;;12.79;72.47;95639.25;5097870;28;20184;-67
2022/10/10 00:03:18;;;;;;;16.17;14.90;;;;;;;12.78;72.52;95643.97;5097431;28;20678;-67
2022/10/10 00:05:45;;;;;;;16.30;14.80;;;;;;;12.72;72.32;95646.19;5097324;28;20200;-67
2022/10/10 00:08:12;;;;;;;16.30;14.80;;;;;;;12.71;72.37;95652.91;5097659;28;20188;-67
2022/10/10 00:10:39;;;;;;;16.02;14.65;;;;;;;12.68;72.38;95656.38;5097543;28;20200;-67
2022/10/10 00:13:06;;;;;;;15.45;13.95;;;;;;;12.65;72.35;95654.31;5097215;28;20196;-67
2022/10/10 00:15:33;;;;;;;15.80;14.50;;;;;;;12.62;72.78;95663.31;5097234;28;20515;-67
2022/10/10 00:18:00;;;;;;;16.75;15.23;;;;;;;12.64;72.39;95654.66;5097541;28;20199;-67
2022/10/10 00:20:28;;;;;;;16.17;14.60;;;;;;;12.62;72.64;95659.72;5097459;28;20188;-67
2022/10/10 00:22:55;;;;;;;16.33;14.90;;;;;;;12.63;72.53;95658.56;5096625;28;20200;-67
2022/10/10 00:25:22;;;;;;;16.17;14.75;;;;;;;12.55;72.10;95646.50;5095356;28;20216;-67
2022/10/10 00:27:49;;;;;;;15.35;13.85;;;;;;;12.50;72.63;95647.56;5097023;28;20185;-67
2022/10/10 00:30:15;;;;;;;15.48;14.07;;;;;;;12.48;73.13;95640.75;5096948;28;20592;-67
2022/10/10 00:32:42;;;;;;;13.95;12.77;;;;;;;12.46;73.24;95652.19;5097146;28;20204;-67
2022/10/10 00:35:10;;;;;;;13.88;12.60;;;;;;;12.46;73.30;95651.38;5097183;28;20177;-67
2022/10/10 00:37:38;;;;;;;14.10;13.00;;;;;;;12.42;73.45;95642.97;5096672;28;20232;-67
2022/10/10 00:40:06;;;;;;;14.05;12.85;;;;;;;12.40;73.81;95641.72;5097046;28;20192;-67
2022/10/10 00:42:33;;;;;;;14.48;13.38;;;;;;;12.44;74.01;95645.38;5097246;28;20188;-67
2022/10/10 00:45:23;;;;;;;15.40;14.10;;;;;;;12.45;73.54;95647.78;5096204;28;20189;-67
2022/10/10 00:47:50;;;;;;;15.15;13.85;;;;;;;12.45;73.34;95645.00;5096941;28;20592;-67
2022/10/10 00:50:19;;;;;;;15.57;14.20;;;;;;;12.42;73.20;95642.19;5095692;28;20181;-67
2022/10/10 00:52:47;;;;;;;14.73;13.50;;;;;;;12.39;73.18;95643.69;5095561;28;20204;-67
2022/10/10 00:55:15;;;;;;;15.20;13.90;;;;;;;12.41;73.17;95652.41;5095932;28;20203;-67
2022/10/10 00:57:41;;;;;;;16.95;15.35;;;;;;;12.39;73.02;95643.69;5096703;28;20193;-67
2022/10/10 01:00:10;;;;;;;15.35;14.02;;;;;;;12.38;72.83;95642.06;5095728;28;20189;-67
2022/10/10 01:02:37;;;;;;;15.55;14.05;;;;;;;12.34;72.69;95632.84;5096700;28;20196;-67
2022/10/10 01:05:04;;;;;;;16.38;14.93;;;;;;;12.28;72.38;95637.03;5095783;28;20218;-67
2022/10/10 01:07:31;;;;;;;15.23;13.95;;;;;;;12.26;72.87;95633.78;5095769;28;20208;-67
2022/10/10 01:10:03;;;;;;;14.77;13.48;;;;;;;12.19;72.44;95645.44;5095535;28;20196;-67
2022/10/10 01:12:38;;;;;;;15.98;14.57;;;;;;;12.16;72.62;95642.56;5095491;28;20226;-67
2022/10/10 01:15:08;;;;;;;16.23;14.73;;;;;;;12.12;73.04;95655.47;5096001;28;20192;-67
2022/10/10 01:17:39;;;;;;;15.65;14.40;;;;;;;12.12;73.28;95656.28;5096329;28;20211;-67
2022/10/10 01:20:27;;;;;;;15.77;14.32;;;;;;;12.12;73.11;95656.28;5096181;28;20522;-67
2022/10/10 01:23:27;;;;;;;15.60;14.23;;;;;;;12.10;72.97;95661.38;5095858;28;20206;-67
2022/10/10 01:26:02;;;;;;;15.45;14.07;;;;;;;12.03;72.84;95658.38;5083170;28;20224;-67
2022/10/10 01:28:39;;;;;;;16.40;15.10;;;;;;;11.98;72.55;95653.91;5096234;28;20188;-67
2022/10/10 01:31:09;;;;;;;16.88;15.45;;;;;;;11.97;72.88;95662.53;5095011;28;20223;-67
2022/10/10 01:33:48;;;;;;;16.25;14.70;;;;;;;11.94;72.93;95660.47;5095105;28;20209;-67
2022/10/10 01:36:21;;;;;;;15.85;14.38;;;;;;;11.93;73.72;95661.63;5095658;28;20181;-67
2022/10/10 01:38:52;;;;;;;16.13;14.63;;;;;;;11.95;73.90;95662.09;5094602;28;20268;-67
2022/10/10 01:41:24;;;;;;;17.02;14.07;;;;;;;11.96;74.25;95661.72;5095821;28;20199;-68
2022/10/10 01:43:54;;;;;;;15.48;14.18;;;;;;;12.00;74.03;95651.59;5095090;28;20204;-67
2022/10/10 01:46:21;;;;;;;16.63;15.07;;;;;;;12.02;73.86;95646.53;5095820;28;20212;-67
2022/10/10 01:48:50;;;;;;;16.30;14.88;;;;;;;11.99;73.82;95652.75;5094877;28;20208;-67
2022/10/10 01:51:29;;;;;;;16.33;14.82;;;;;;;11.96;73.73;95656.19;5094738;28;20192;-67
2022/10/10 01:54:02;;;;;;;15.75;14.40;;;;;;;11.94;73.51;95650.22;5094723;28;20200;-67
2022/10/10 01:56:34;;;;;;;15.52;14.23;;;;;;;11.95;73.74;95651.84;5095694;28;20196;-67
2022/10/10 01:59:10;;;;;;;15.13;13.82;;;;;;;11.95;73.48;95657.38;5094730;28;20207;-67
2022/10/10 02:01:42;;;;;;;15.40;14.10;;;;;;;11.91;73.97;95658.38;5095049;28;20200;-68
2022/10/10 02:04:15;;;;;;;15.18;13.93;;;;;;;11.91;74.27;95661.97;5095071;28;20200;-67
2022/10/10 02:06:44;;;;;;;15.75;14.45;;;;;;;11.91;74.12;95658.38;5094679;28;20192;-67
2022/10/10 02:09:14;;;;;;;16.52;15.02;;;;;;;11.92;73.66;95660.03;5095413;28;20188;-67
2022/10/10 02:11:42;;;;;;;16.65;15.25;;;;;;;11.89;73.25;95660.72;5095511;28;20201;-67
2022/10/10 02:14:15;;;;;;;15.57;14.18;;;;;;;11.82;73.16;95662.06;5095207;28;20189;-67
2022/10/10 02:16:45;;;;;;;15.60;14.20;;;;;;;11.79;73.36;95662.75;5094772;28;20211;-67
2022/10/10 02:19:14;;;;;;;15.60;14.10;;;;;;;11.75;73.87;95666.56;5095037;28;20208;-67
2022/10/10 02:21:42;;;;;;;14.55;13.35;;;;;;;11.73;73.96;95672.44;5095392;28;20195;-67
2022/10/10 02:24:10;;;;;;;17.17;15.35;;;;;;;11.76;74.12;95674.50;5095307;28;20192;-67
2022/10/10 02:26:38;;;;;;;17.20;15.57;;;;;;;11.77;73.92;95667.81;5094106;28;20211;-67
2022/10/10 02:29:09;;;;;;;14.48;13.18;;;;;;;11.82;73.65;95666.78;5093989;28;20204;-67
2022/10/10 02:31:39;;;;;;;14.93;13.70;;;;;;;11.79;73.74;95668.28;5094118;28;20223;-67
2022/10/10 02:34:09;;;;;;;15.15;13.95;;;;;;;11.78;73.98;95668.63;5094041;28;20273;-68
2022/10/10 02:36:36;;;;;;;16.63;15.13;;;;;;;11.76;73.87;95669.00;5095044;28;20200;-68
2022/10/10 02:39:04;;;;;;;16.58;14.98;;;;;;;11.74;74.20;95674.03;5094804;28;20195;-68
2022/10/10 02:41:31;;;;;;;15.95;14.60;;;;;;;11.73;74.31;95672.44;5093831;28;20207;-68
2022/10/10 02:43:58;;;;;;;15.75;14.35;;;;;;;11.75;74.78;95680.38;5094249;28;20188;-68
2022/10/10 02:46:28;;;;;;;15.73;14.32;;;;;;;11.77;74.52;95667.81;5094829;28;20185;-68
2022/10/10 02:48:56;;;;;;;15.55;14.15;;;;;;;11.77;74.66;95670.59;5097818;28;20204;-68
2022/10/10 02:51:23;;;;;;;15.48;14.00;;;;;;;11.79;74.29;95664.69;5099032;28;20188;-68
2022/10/10 02:53:50;;;;;;;15.82;14.32;;;;;;;11.79;74.37;95673.00;5099220;28;20523;-68
2022/10/10 02:56:16;;;;;;;16.98;14.65;;;;;;;11.73;73.53;95672.44;5098771;28;20192;-68
2022/10/10 02:58:43;;;;;;;16.58;15.02;;;;;;;11.71;73.76;95665.63;5099043;28;20188;-67
2022/10/10 03:01:11;;;;;;;16.45;14.85;;;;;;;11.68;73.95;95675.41;5098886;28;20192;-67
2022/10/10 03:03:38;;;;;;;16.77;15.30;;;;;;;11.67;73.83;95670.25;5099023;28;20184;-67
2022/10/10 03:06:07;;;;;;;17.88;15.57;;;;;;;11.66;74.18;95666.69;5098544;28;20603;-68
2022/10/10 03:08:34;;;;;;;16.52;15.02;;;;;;;11.67;74.40;95662.75;5098893;28;20184;-67
2022/10/10 03:11:01;;;;;;;17.98;16.35;;;;;;;11.68;74.47;95669.88;5098518;28;20188;-67
2022/10/10 03:13:28;;;;;;;17.35;15.82;;;;;;;11.68;74.62;95669.88;5098761;28;20196;-68
2022/10/10 03:15:55;;;;;;;17.38;15.77;;;;;;;11.61;74.42;95669.66;5097471;28;20188;-68
2022/10/10 03:18:22;;;;;;;17.23;15.52;;;;;;;11.55;73.83;95669.09;5098432;28;20184;-68
2022/10/10 03:20:51;;;;;;;15.75;14.35;;;;;;;11.49;73.72;95675.19;5097680;28;20208;-68
2022/10/10 03:23:20;;;;;;;16.30;14.77;;;;;;;11.47;74.06;95669.97;5097534;28;20193;-67
2022/10/10 03:25:46;;;;;;;16.20;14.70;;;;;;;11.47;74.15;95677.47;5097794;28;20200;-68
2022/10/10 03:28:14;;;;;;;17.60;15.90;;;;;;;11.45;73.99;95677.81;5098495;28;20188;-68
2022/10/10 03:30:41;;;;;;;17.67;15.90;;;;;;;11.42;73.98;95686.78;5097876;28;20206;-68
2022/10/10 03:33:08;;;;;;;18.20;16.40;;;;;;;11.39;74.00;95686.66;5098217;28;20204;-68
2022/10/10 03:35:35;;;;;;;17.25;15.73;;;;;;;11.36;73.99;95685.41;5098668;28;20196;-68
2022/10/10 03:38:02;;;;;;;18.00;16.27;;;;;;;11.37;74.46;95692.56;5097208;28;20231;-68
2022/10/10 03:40:30;;;;;;;17.52;15.93;;;;;;;11.37;74.33;95689.78;5098408;28;20316;-68
2022/10/10 03:42:57;;;;;;;18.95;17.15;;;;;;;11.36;73.99;95692.88;5096966;28;20195;-68
2022/10/10 03:45:24;;;;;;;18.42;16.63;;;;;;;11.33;74.25;95688.88;5096830;28;20585;-68
2022/10/10 03:47:51;;;;;;;19.30;16.50;;;;;;;11.32;74.40;95690.78;5097767;28;20192;-68
2022/10/10 03:50:18;;;;;;;17.50;15.77;;;;;;;11.36;74.38;95690.13;5097538;28;20196;-68
2022/10/10 03:52:45;;;;;;;18.55;16.63;;;;;;;11.34;74.54;95698.75;5096994;28;20224;-68
2022/10/10 03:55:12;;;;;;;16.95;15.45;;;;;;;11.31;74.74;95694.72;5096906;28;20204;-67
2022/10/10 03:57:40;;;;;;;17.58;16.00;;;;;;;11.33;74.97;95688.88;5098253;28;20199;-67
2022/10/10 04:00:08;;;;;;;17.38;15.75;;;;;;;11.34;74.60;95687.72;5098047;28;20181;-67
2022/10/10 04:02:35;;;;;;;19.58;17.67;;;;;;;11.36;74.40;95688.16;5097816;28;20188;-70
2022/10/10 04:05:02;;;;;;;20.33;18.42;;;;;;;11.36;74.47;95687.34;5097863;28;20180;-69
2022/10/10 04:07:29;;;;;;;20.45;18.50;;;;;;;11.34;74.39;95698.75;5097087;28;20470;-68
2022/10/10 04:09:55;;;;;;;19.40;17.55;;;;;;;11.33;74.21;95688.88;5097606;28;20191;-67
2022/10/10 04:12:22;;;;;;;21.83;17.27;;;;;;;11.32;73.97;95695.50;5096790;28;20216;-67
2022/10/10 04:14:50;;;;;;;19.10;17.33;;;;;;;11.27;73.93;95693.78;5097589;28;20215;-71
2022/10/10 04:17:17;;;;;;;22.25;19.42;;;;;;;11.22;73.70;95695.94;5096558;28;20200;-74
2022/10/10 04:19:44;;;;;;;21.52;18.50;;;;;;;11.18;73.71;95700.53;5097678;28;20211;-69
2022/10/10 04:22:11;;;;;;;20.77;17.25;;;;;;;11.16;74.08;95702.84;5096798;28;20193;-70
2022/10/10 04:24:38;;;;;;;22.77;17.73;;;;;;;11.14;74.35;95696.84;5096471;28;20192;-71
2022/10/10 04:27:05;;;;;;;21.70;17.92;;;;;;;11.14;74.18;95699.63;5096374;28;20188;-70
2022/10/10 04:29:33;;;;;;;20.20;17.88;;;;;;;11.12;73.68;95699.16;5096690;28;20195;-70
2022/10/10 04:32:01;;;;;;;21.60;18.52;;;;;;;11.11;74.11;95692.00;5097352;28;20199;-70
2022/10/10 04:34:28;;;;;;;20.42;18.40;;;;;;;11.07;73.83;95689.97;5096952;28;20502;-70
2022/10/10 04:36:55;;;;;;;20.85;18.65;;;;;;;11.08;74.32;95697.09;5096748;28;20321;-70
2022/10/10 04:39:22;;;;;;;26.02;19.25;;;;;;;11.10;74.02;95702.25;5095581;28;20208;-68
2022/10/10 04:41:49;;;;;;;25.88;19.73;;;;;;;11.09;74.24;95700.66;5097052;28;20184;-69
2022/10/10 04:44:16;;;;;;;26.60;19.95;;;;;;;11.06;73.82;95698.56;5095967;28;20231;-69
2022/10/10 04:46:43;;;;;;;26.33;20.48;;;;;;;11.07;74.04;95697.41;5096170;28;20211;-72
2022/10/10 04:49:11;;;;;;;24.15;19.10;;;;;;;11.05;74.04;95699.72;5096063;28;20208;-67
2022/10/10 04:51:38;;;;;;;20.23;18.02;;;;;;;11.04;73.81;95703.63;5097156;28;20184;-67
2022/10/10 04:54:05;;;;;;;20.30;17.05;;;;;;;11.03;73.77;95702.81;5096901;28;20219;-67
2022/10/10 04:56:32;;;;;;;21.13;18.10;;;;;;;11.03;73.88;95697.28;5096318;28;20192;-69
2022/10/10 04:58:59;;;;;;;26.13;18.80;;;;;;;11.04;73.71;95701.69;5096337;28;20195;-70
2022/10/10 05:01:25;;;;;;;19.27;17.42;;;;;;;11.03;74.20;95708.31;5095533;28;20605;-71
2022/10/10 05:03:52;;;;;;;22.13;18.48;;;;;;;11.05;74.05;95703.28;5096166;28;20196;-72
2022/10/10 05:06:20;;;;;;;20.83;17.60;;;;;;;11.08;74.27;95704.56;5096533;28;20189;-72
2022/10/10 05:08:47;;;;;;;20.83;18.25;;;;;;;11.05;74.19;95700.53;5096184;28;20199;-70
2022/10/10 05:11:14;;;;;;;21.25;17.77;;;;;;;11.05;74.47;95708.81;5096441;28;20196;-70
2022/10/10 05:13:41;;;;;;;20.42;17.13;;;;;;;11.04;74.28;95712.72;5096267;28;20219;-69
2022/10/10 05:16:08;;;;;;;24.45;18.05;;;;;;;11.05;74.73;95711.56;5096825;28;20193;-70
2022/10/10 05:18:36;;;;;;;20.55;18.15;;;;;;;11.07;74.69;95714.81;5097179;28;20192;-70
2022/10/10 05:21:02;;;;;;;21.20;18.08;;;;;;;11.12;75.05;95721.25;5095768;28;20206;-70
2022/10/10 05:23:31;;;;;;;19.70;17.13;;;;;;;11.17;75.33;95729.31;5096947;28;20196;-70
2022/10/10 05:25:57;;;;;;;18.45;16.70;;;;;;;11.19;75.28;95727.84;5096887;28;20196;-69
2022/10/10 05:28:24;;;;;;;18.92;17.20;;;;;;;11.20;75.31;95726.69;5095868;28;20203;-70
2022/10/10 05:30:51;;;;;;;18.58;16.98;;;;;;;11.19;75.53;95727.84;5096825;28;20181;-69
2022/10/10 05:33:18;;;;;;;17.80;16.10;;;;;;;11.23;75.36;95733.47;5096496;28;20234;-70
2022/10/10 05:35:45;;;;;;;18.00;16.27;;;;;;;11.25;75.09;95728.41;5096560;28;20249;-72
2022/10/10 05:38:12;;;;;;;17.83;16.23;;;;;;;11.27;74.96;95735.22;5095247;28;20572;-69
2022/10/10 05:40:41;;;;;;;18.25;16.42;;;;;;;11.29;75.47;95734.84;5096709;28;20188;-71
2022/10/10 05:43:08;;;;;;;17.67;16.10;;;;;;;11.30;75.82;95736.50;5096225;28;20192;-71
2022/10/10 05:45:34;;;;;;;18.50;16.80;;;;;;;11.35;75.52;95743.75;5096275;28;20203;-71
2022/10/10 05:48:01;;;;;;;18.58;16.52;;;;;;;11.38;75.38;95738.34;5095949;28;20253;-71
2022/10/10 05:50:32;;;;;;;19.60;17.80;;;;;;;11.42;75.53;95746.75;5094825;28;20544;-71
2022/10/10 05:52:59;;;;;;;20.33;18.52;;;;;;;11.40;75.54;95749.88;5094928;28;20220;-71
2022/10/10 05:55:26;;;;;;;20.55;18.90;;;;;;;11.39;75.87;95751.00;5094661;28;20611;-68
2022/10/10 05:57:54;;;;;;;18.63;16.92;;;;;;;11.41;76.07;95750.69;5095976;28;20207;-69
2022/10/10 06:00:21;;;;;;;19.35;17.55;;;;;;;11.42;76.15;95755.84;5096074;28;20181;-69
2022/10/10 06:02:48;;;;;;;19.40;17.65;;;;;;;11.46;76.90;95759.53;5095607;28;20627;-69
2022/10/10 06:05:14;;;;;;;19.83;18.13;;;;;;;11.52;76.75;95762.91;5095784;28;20188;-70
2022/10/10 06:07:41;;;;;;;19.95;18.15;;;;;;;11.55;76.99;95762.22;5094913;28;20523;-70
2022/10/10 06:10:09;;;;;;;19.10;17.40;;;;;;;11.58;76.86;95758.75;5095884;28;20184;-68
2022/10/10 06:12:36;;;;;;;19.48;17.67;;;;;;;11.65;77.16;95758.19;5094516;28;20207;-69
2022/10/10 06:15:05;;;;;;;19.35;17.65;;;;;;;11.75;77.34;95760.50;5095397;28;20192;-69
2022/10/10 06:17:33;;;;;;;22.23;20.25;;;;;;;11.79;77.01;95775.25;5096004;28;20196;-71
2022/10/10 06:20:00;;;;;;;22.08;19.88;;;;;;;11.84;77.24;95772.31;5095170;28;20204;-71
2022/10/10 06:22:27;;;;;;;22.58;20.50;;;;;;;11.90;77.12;95775.63;5094921;28;20253;-72
2022/10/10 06:24:54;;;;;;;22.35;20.27;;;;;;;11.95;77.31;95769.91;5094790;28;20241;-71
2022/10/10 06:27:21;;;;;;;23.55;21.25;;;;;;;11.99;77.26;95768.88;5095681;28;20195;-74
2022/10/10 06:29:47;;;;;;;23.23;20.90;;;;;;;12.05;77.48;95774.94;5095036;28;20545;-73
2022/10/10 06:32:16;;;;;;;23.60;21.35;;;;;;;12.11;77.45;95770.81;5095072;28;20199;-73
2022/10/10 06:34:42;;;;;;;25.15;22.85;;;;;;;12.17;77.62;95776.94;5094862;28;20220;-73
2022/10/10 06:37:11;;;;;;;22.90;20.88;;;;;;;12.22;77.86;95780.25;5095294;28;20231;-72
2022/10/10 06:39:38;;;;;;;24.88;22.67;;;;;;;12.29;78.27;95782.44;5094710;28;20196;-74
2022/10/10 06:42:04;;;;;;;24.73;22.58;;;;;;;12.35;78.20;95783.84;5095558;28;20596;-74
2022/10/10 06:44:31;;;;;;;25.27;23.00;;;;;;;12.41;78.12;95781.63;5094632;28;20616;-73
2022/10/10 06:46:58;;;;;;;23.90;21.77;;;;;;;12.46;78.19;95775.88;5094678;28;20196;-74
2022/10/10 06:49:28;;;;;;;24.63;22.08;;;;;;;12.53;77.82;95781.63;5094614;28;20388;-74
2022/10/10 06:51:54;;;;;;;26.02;23.73;;;;;;;12.59;78.44;95782.19;5094371;28;20539;-73
2022/10/10 06:54:21;;;;;;;26.33;23.92;;;;;;;12.62;78.17;95776.75;5094512;28;20213;-73
2022/10/10 06:56:48;;;;;;;26.42;24.02;;;;;;;12.69;78.20;95778.94;5095920;28;20196;-72
2022/10/10 06:59:16;;;;;;;25.10;23.00;;;;;;;12.74;77.80;95778.69;5095032;28;20401;-72
2022/10/10 07:01:43;;;;;;;25.48;23.27;;;;;;;12.81;77.61;95784.44;5095587;28;20191;-71
2022/10/10 07:04:10;;;;;;;26.08;23.67;;;;;;;12.86;77.22;95775.91;5094177;28;20200;-72
2022/10/10 07:06:38;;;;;;;26.70;24.30;;;;;;;12.96;77.09;95780.97;5095391;28;20185;-73
2022/10/10 07:09:05;;;;;;;27.60;25.17;;;;;;;13.00;76.73;95789.38;5095131;28;20200;-70
2022/10/10 07:11:32;;;;;;;30.98;28.27;;;;;;;13.03;76.61;95791.41;5095492;28;20207;-69
2022/10/10 07:13:59;;;;;;;31.98;29.08;;;;;;;13.07;76.07;95785.97;5094102;28;20217;-71
2022/10/10 07:16:26;;;;;;;30.75;27.88;;;;;;;13.07;76.00;95784.03;5094468;28;20212;-71
2022/10/10 07:18:53;;;;;;;30.95;27.95;;;;;;;13.08;75.69;95782.88;5094348;28;20203;-69
2022/10/10 07:21:20;;;;;;;32.55;29.45;;;;;;;13.13;75.90;95779.03;5095123;28;20188;-68
2022/10/10 07:23:48;;;;;;;32.13;29.05;;;;;;;13.20;76.24;95776.47;5095384;28;20185;-70
2022/10/10 07:26:19;;;;;;;31.33;28.27;;;;;;;13.29;77.26;95776.34;5094978;28;20184;-70
2022/10/10 07:28:46;;;;;;;31.10;28.40;;;;;;;13.34;76.50;95773.34;5095031;28;20269;-71
2022/10/10 07:31:14;;;;;;;30.02;27.23;;;;;;;13.39;76.38;95770.31;5093908;28;20544;-70
2022/10/10 07:33:45;;;;;;;29.02;26.13;;;;;;;13.44;76.11;95773.63;5095175;28;20224;-71
2022/10/10 07:36:12;;;;;;;27.92;25.15;;;;;;;13.47;75.48;95774.88;5098510;28;20211;-73
2022/10/10 07:38:39;;;;;;;27.05;24.45;;;;;;;13.49;75.30;95769.78;5097488;28;20557;-73
2022/10/10 07:41:08;;;;;;;26.45;23.95;;;;;;;13.56;75.11;95766.41;5097427;28;20215;-73
2022/10/10 07:43:36;;;;;;;27.13;24.52;;;;;;;13.62;75.24;95759.47;5098472;28;20188;-73
2022/10/10 07:46:03;;;;;;;27.00;24.48;;;;;;;13.68;74.75;95761.59;5097816;28;20196;-73
2022/10/10 07:48:30;;;;;;;27.70;25.20;;;;;;;13.74;74.26;95756.59;5097823;28;20193;-71
2022/10/10 07:50:57;;;;;;;27.63;24.92;;;;;;;13.79;74.09;95759.09;5097536;28;20219;-73
2022/10/10 07:53:23;;;;;;;27.80;24.42;;;;;;;13.87;73.97;95758.13;5097876;28;20208;-68
2022/10/10 07:55:50;;;;;;;26.15;23.60;;;;;;;13.92;73.51;95757.84;5098400;28;20196;-72
2022/10/10 07:58:18;;;;;;;27.40;24.77;;;;;;;14.00;73.48;95760.81;5098348;28;20180;-72
2022/10/10 08:00:46;;;;;;;30.25;25.98;;;;;;;14.10;73.49;95763.03;5098241;28;20208;-73
2022/10/10 08:03:12;;;;;;;29.92;26.80;;;;;;;14.20;73.63;95759.75;5098131;28;20195;-72
2022/10/10 08:05:40;;;;;;;28.63;25.55;;;;;;;14.26;73.30;95757.47;5097727;28;20647;-72
2022/10/10 08:08:07;;;;;;;28.67;25.65;;;;;;;14.33;73.63;95757.66;5098432;28;20195;-71
2022/10/10 08:10:34;;;;;;;27.45;24.45;;;;;;;14.39;72.69;95754.25;5098518;28;20216;-72
2022/10/10 08:13:01;;;;;;;26.17;22.80;;;;;;;14.41;72.67;95748.31;5097499;28;20207;-71
2022/10/10 08:15:29;;;;;;;26.38;23.05;;;;;;;14.43;72.77;95749.56;5098168;28;20295;-73
2022/10/10 08:17:56;;;;;;;25.92;23.48;;;;;;;14.48;72.80;95753.22;5097925;28;20192;-73
2022/10/10 08:20:23;;;;;;;24.08;21.35;;;;;;;14.54;72.51;95749.06;5097426;28;20531;-73
2022/10/10 08:22:49;;;;;;;25.35;21.42;;;;;;;14.61;71.96;95754.75;5097048;28;20224;-72
2022/10/10 08:25:16;;;;;;;21.40;19.27;;;;;;;14.66;71.62;95748.91;5097018;28;20217;-69
2022/10/10 08:27:43;;;;;;;24.85;19.20;;;;;;;14.71;71.63;95756.97;5097701;28;20242;-68
2022/10/10 08:30:11;;;;;;;20.40;18.10;;;;;;;14.76;71.41;95748.34;5096947;28;20204;-69
2022/10/10 08:32:40;;;;;;;19.25;17.40;;;;;;;14.78;70.65;95751.59;5097790;28;20185;-68
2022/10/10 08:35:07;;;;;;;20.15;17.10;;;;;;;14.82;71.03;95754.44;5096401;28;20219;-72
2022/10/10 08:37:34;;;;;;;20.85;18.63;;;;;;;14.87;70.75;95751.38;5097059;28;20239;-68
2022/10/10 08:40:01;;;;;;;19.52;17.63;;;;;;;14.90;70.47;95758.97;5097041;28;20196;-68
2022/10/10 08:42:31;;;;;;;21.38;19.27;;;;;;;14.95;70.88;95764.22;5097671;28;20176;-68
2022/10/10 08:45:02;;;;;;;21.10;18.95;;;;;;;14.97;70.30;95756.34;5096308;28;20191;-68
2022/10/10 08:47:36;;;;;;;20.05;18.00;;;;;;;14.99;70.28;95765.09;5098024;28;20188;-69
2022/10/10 08:50:07;;;;;;;24.30;21.73;;;;;;;15.00;69.90;95763.97;5097129;28;20180;-69
2022/10/10 08:52:38;;;;;;;23.15;20.77;;;;;;;15.01;70.33;95754.44;5097291;28;20195;-69
2022/10/10 08:55:08;;;;;;;23.67;21.50;;;;;;;15.03;70.30;95765.19;5096079;28;20273;-69
2022/10/10 08:57:43;;;;;;;19.90;17.98;;;;;;;15.05;69.93;95765.63;5096845;28;20211;-69
2022/10/10 09:00:16;;;;;;;18.50;16.77;;;;;;;15.05;70.00;95765.63;5096641;28;20200;-68
2022/10/10 09:02:48;;;;;;;19.17;17.35;;;;;;;15.09;69.62;95772.06;5096417;28;20200;-68
2022/10/10 09:05:18;;;;;;;19.13;17.13;;;;;;;15.12;69.78;95766.59;5096067;28;20189;-71
2022/10/10 09:07:58;;;;;;;17.83;16.00;;;;;;;15.17;69.56;95760.72;5096084;28;20245;-70
2022/10/10 09:10:32;;;;;;;16.33;14.55;;;;;;;15.22;69.48;95773.53;5096905;28;20181;-70
2022/10/10 09:13:06;;;;;;;17.55;15.75;;;;;;;15.31;69.46;95760.22;5095960;28;20193;-70
2022/10/10 09:15:35;;;;;;;16.60;14.95;;;;;;;15.39;68.75;95761.16;5096467;28;20239;-72
2022/10/10 09:18:10;;;;;;;18.52;16.27;;;;;;;15.44;68.60;95769.22;5096093;28;20197;-70
2022/10/10 09:20:47;;;;;;;16.50;15.05;;;;;;;15.51;68.45;95771.34;5096465;28;20207;-67
2022/10/10 09:23:20;;;;;;;17.70;14.52;;;;;;;15.52;69.07;95776.50;5096573;28;20245;-67
2022/10/10 09:25:51;;;;;;;14.77;13.30;;;;;;;15.58;69.17;95777.03;5096655;28;20181;-67
2022/10/10 09:28:22;;;;;;;14.63;12.32;;;;;;;15.65;69.63;95777.16;5095600;28;20200;-68
2022/10/10 09:30:52;;;;;;;14.23;12.82;;;;;;;15.73;69.24;95780.91;5095607;28;20203;-68
2022/10/10 09:33:26;;;;;;;14.75;13.32;;;;;;;15.76;67.90;95778.19;5096210;28;20194;-72
2022/10/10 09:35:55;;;;;;;13.07;11.77;;;;;;;15.78;67.25;95775.84;5095542;28;20261;-70
2022/10/10 09:38:32;;;;;;;14.27;12.77;;;;;;;15.82;67.73;95771.13;5096639;28;20247;-70
2022/10/10 09:41:02;;;;;;;10.77;9.68;;;;;;;15.90;65.91;95774.84;5096114;28;20210;-70
2022/10/10 09:43:31;;;;;;;10.23;8.52;;;;;;;15.97;64.82;95774.97;5095981;28;20219;-69
2022/10/10 09:45:58;;;;;;;8.98;8.15;;;;;;;16.00;63.92;95774.25;5095198;28;20604;-68
2022/10/10 09:48:29;;;;;;;8.45;7.65;;;;;;;15.98;64.68;95770.25;5096158;28;20184;-70
2022/10/10 09:50:57;;;;;;;8.38;7.57;;;;;;;15.98;64.66;95771.03;5096184;28;20188;-70
2022/10/10 09:53:24;;;;;;;8.57;7.70;;;;;;;15.98;64.64;95773.03;5096094;28;20192;-70
2022/10/10 09:55:55;;;;;;;8.65;7.85;;;;;;;16.02;65.13;95771.09;5095595;28;20212;-70
2022/10/10 09:58:27;;;;;;;7.93;7.32;;;;;;;16.05;63.11;95768.38;5096392;28;20253;-69
2022/10/10 10:00:53;;;;;;;8.00;7.20;;;;;;;16.09;63.94;95768.44;5096176;28;20185;-68
2022/10/10 10:03:22;;;;;;;8.13;7.43;;;;;;;16.07;64.65;95771.59;5094968;28;20184;-71
2022/10/10 10:05:55;;;;;;;9.05;7.53;;;;;;;16.07;64.16;95765.22;5096040;28;20180;-71
2022/10/10 10:08:34;;;;;;;8.57;7.65;;;;;;;16.11;63.33;95760.50;5096080;28;20200;-69
2022/10/10 10:11:01;;;;;;;8.50;7.68;;;;;;;16.13;63.19;95758.19;5095001;28;20196;-70
2022/10/10 10:13:31;;;;;;;8.88;7.78;;;;;;;16.12;63.49;95760.16;5096105;28;20195;-70
2022/10/10 10:16:05;;;;;;;7.55;6.90;;;;;;;16.13;62.77;95763.75;5095417;28;20227;-70
2022/10/10 10:18:38;;;;;;;8.68;7.97;;;;;;;16.13;64.01;95760.97;5095521;28;20188;-70
2022/10/10 10:21:18;;;;;;;8.50;7.80;;;;;;;16.16;63.37;95756.59;5094815;28;20200;-70
2022/10/10 10:23:53;;;;;;;8.13;7.32;;;;;;;16.20;63.82;95758.28;5095861;28;20180;-71
2022/10/10 10:26:22;;;;;;;8.38;7.50;;;;;;;16.23;62.33;95749.19;5095627;28;20650;-71
2022/10/10 10:28:50;;;;;;;7.93;7.22;;;;;;;16.26;62.87;95753.19;5095020;28;20532;-71
2022/10/10 10:31:34;;;;;;;8.63;7.82;;;;;;;16.25;62.45;95755.19;5095737;28;20196;-72
2022/10/10 10:34:11;;;;;;;8.00;7.20;;;;;;;16.29;62.87;95755.25;5095443;28;20204;-72
2022/10/10 10:36:45;;;;;;;9.25;7.05;;;;;;;16.30;62.70;95749.31;5095442;28;20588;-71
2022/10/10 10:39:23;;;;;;;8.18;7.22;;;;;;;16.32;62.34;95744.16;5095224;28;20192;-70
2022/10/10 10:41:55;;;;;;;7.85;7.15;;;;;;;16.34;61.79;95746.59;5095556;28;20192;-71
2022/10/10 10:44:31;;;;;;;8.32;7.45;;;;;;;16.36;62.03;95745.03;5095131;28;20203;-73
2022/10/10 10:47:04;;;;;;;8.32;7.53;;;;;;;16.39;62.46;95745.47;5096018;28;20188;-73
2022/10/10 10:49:36;;;;;;;7.80;7.00;;;;;;;16.39;61.99;95748.25;5094670;28;20192;-74
2022/10/10 10:52:21;;;;;;;8.00;7.25;;;;;;;16.39;61.99;95745.47;5094836;28;20189;-74
2022/10/10 10:55:02;;;;;;;8.05;7.13;;;;;;;16.38;61.00;95744.66;5093584;28;20220;-70
2022/10/10 10:57:39;;;;;;;8.48;7.65;;;;;;;16.39;61.27;95739.91;5095490;28;20184;-73
2022/10/10 11:00:09;;;;;;;13.88;8.60;;;;;;;16.40;61.16;95733.13;5095424;28;20185;-73
2022/10/10 11:02:42;;;;;;;9.73;8.85;;;;;;;16.42;60.25;95714.09;5094565;28;20207;-73
2022/10/10 11:05:36;;;;;;;8.45;7.65;;;;;;;16.46;60.86;95710.19;5094556;28;20196;-71
2022/10/10 11:08:15;;;;;;;9.90;7.60;;;;;;;16.52;60.40;95702.28;5095431;28;20193;-70
2022/10/10 11:10:49;;;;;;;8.35;7.30;;;;;;;16.56;61.04;95703.16;5099120;28;20596;-72
2022/10/10 11:13:21;;;;;;;7.75;6.85;;;;;;;16.58;62.14;95709.16;5098382;28;20518;-72
2022/10/10 11:15:51;;;;;;;7.43;6.57;;;;;;;16.58;61.00;95707.16;5099068;28;20215;-73
2022/10/10 11:18:24;;;;;;;8.68;7.28;;;;;;;16.58;60.64;95711.94;5098834;28;20223;-74
2022/10/10 11:20:55;;;;;;;7.95;7.18;;;;;;;16.56;61.45;95703.97;5098284;28;20215;-74
2022/10/10 11:23:25;;;;;;;7.93;7.18;;;;;;;16.56;60.91;95705.94;5098100;28;20200;-73
2022/10/10 11:25:56;;;;;;;9.55;6.70;;;;;;;16.57;60.67;95707.53;5098505;28;20196;-74
2022/10/10 11:28:27;;;;;;;7.75;7.00;;;;;;;16.58;60.82;95703.56;5098206;28;20200;-74